createdAt,value
2023-02-08T00:01:16.238Z,11.75
2023-02-08T00:03:44.507Z,13.10
2023-02-08T00:06:13.087Z,11.50
2023-02-08T00:08:41.644Z,15.20
2023-02-08T00:11:11.828Z,12.82
2023-02-08T00:13:42.343Z,12.23
2023-02-08T00:16:11.050Z,12.80
2023-02-08T00:18:38.749Z,13.62
2023-02-08T00:21:17.439Z,16.45
2023-02-08T00:23:45.501Z,14.32
2023-02-08T00:26:13.852Z,16.23
2023-02-08T00:28:41.776Z,16.30
2023-02-08T00:31:09.651Z,13.75
2023-02-08T00:33:37.515Z,14.30
2023-02-08T00:36:08.841Z,15.35
2023-02-08T00:38:36.895Z,11.43
2023-02-08T00:41:05.229Z,12.98
2023-02-08T00:43:33.186Z,13.05
2023-02-08T00:46:01.591Z,13.07
2023-02-08T00:48:29.826Z,11.30
2023-02-08T00:51:00.273Z,12.90
2023-02-08T00:53:28.179Z,15.55
2023-02-08T00:55:57.086Z,11.73
2023-02-08T00:58:24.852Z,13.15
2023-02-08T01:00:54.947Z,12.18
2023-02-08T01:03:24.177Z,14.50
2023-02-08T01:05:52.377Z,14.57
2023-02-08T01:08:23.556Z,13.85
2023-02-08T01:10:51.390Z,13.88
2023-02-08T01:13:19.115Z,13.73
2023-02-08T01:15:46.968Z,13.20
2023-02-08T01:18:14.705Z,12.25
2023-02-08T01:20:42.454Z,12.60
2023-02-08T01:23:10.162Z,10.75
2023-02-08T01:25:37.890Z,11.75
2023-02-08T01:28:06.094Z,13.93
2023-02-08T01:30:33.847Z,13.20
2023-02-08T01:33:01.595Z,12.57
2023-02-08T01:35:29.322Z,15.10
2023-02-08T01:37:57.060Z,13.18
2023-02-08T01:40:24.713Z,14.00
2023-02-08T01:42:52.384Z,11.85
2023-02-08T01:45:26.435Z,12.48
2023-02-08T01:48:14.788Z,12.75
2023-02-08T01:50:51.459Z,11.48
2023-02-08T01:53:19.650Z,13.20
2023-02-08T01:55:53.926Z,13.23
2023-02-08T01:58:23.402Z,14.65
2023-02-08T02:00:51.248Z,14.45
2023-02-08T02:03:21.890Z,13.57
2023-02-08T02:05:58.773Z,15.10
2023-02-08T02:08:26.831Z,13.62
2023-02-08T02:10:54.713Z,14.30
2023-02-08T02:13:24.740Z,11.65
2023-02-08T02:15:52.954Z,13.43
2023-02-08T02:18:30.706Z,12.88
2023-02-08T02:21:23.155Z,10.80
2023-02-08T02:24:31.264Z,12.88
2023-02-08T02:27:26.849Z,13.07
2023-02-08T02:30:31.763Z,9.60
2023-02-08T02:33:11.355Z,14.38
2023-02-08T02:35:54.161Z,12.32
2023-02-08T02:38:55.751Z,10.38
2023-02-08T02:41:50.918Z,15.20
2023-02-08T02:44:38.502Z,14.90
2023-02-08T02:47:32.256Z,16.48
2023-02-08T02:50:26.302Z,13.07
2023-02-08T02:53:20.851Z,10.70
2023-02-08T02:55:57.414Z,13.10
2023-02-08T02:58:26.781Z,12.32
2023-02-08T03:00:59.244Z,13.88
2023-02-08T03:03:31.687Z,13.43
2023-02-08T03:06:06.076Z,12.93
2023-02-08T03:09:13.358Z,13.45
2023-02-08T03:11:46.138Z,13.52
2023-02-08T03:14:19.962Z,16.05
2023-02-08T03:17:02.100Z,15.90
2023-02-08T03:20:13.216Z,12.85
2023-02-08T03:23:02.641Z,12.30
2023-02-08T03:26:01.594Z,14.90
2023-02-08T03:28:59.667Z,10.90
2023-02-08T03:31:47.109Z,12.70
2023-02-08T03:34:28.245Z,11.73
2023-02-08T03:37:09.444Z,9.75
2023-02-08T03:39:40.073Z,13.85
2023-02-08T03:42:16.107Z,12.30
2023-02-08T03:44:53.143Z,13.32
2023-02-08T03:47:28.242Z,14.23
2023-02-08T03:50:00.746Z,14.45
2023-02-08T03:52:31.476Z,13.43
2023-02-08T03:55:07.837Z,12.98
2023-02-08T03:58:14.083Z,12.40
2023-02-08T04:00:46.215Z,15.48
2023-02-08T04:03:21.411Z,15.90
2023-02-08T04:05:50.497Z,15.15
2023-02-08T04:08:18.447Z,14.50
2023-02-08T04:10:48.235Z,11.88
2023-02-08T04:13:16.006Z,13.23
2023-02-08T04:15:45.200Z,13.10
2023-02-08T04:18:12.949Z,13.73
2023-02-08T04:20:40.887Z,14.85
2023-02-08T04:23:08.653Z,13.48
2023-02-08T04:25:36.420Z,13.52
2023-02-08T04:28:04.125Z,11.55
2023-02-08T04:30:31.851Z,13.55
2023-02-08T04:33:01.153Z,16.30
2023-02-08T04:35:28.907Z,13.90
2023-02-08T04:37:56.611Z,15.40
2023-02-08T04:40:24.325Z,15.95
2023-02-08T04:42:52.076Z,13.50
2023-02-08T04:45:19.774Z,12.07
2023-02-08T04:47:47.645Z,13.52
2023-02-08T04:50:16.023Z,12.32
2023-02-08T04:52:43.855Z,13.52
2023-02-08T04:55:11.697Z,14.80
2023-02-08T04:57:39.404Z,15.93
2023-02-08T05:00:07.568Z,14.23
2023-02-08T05:02:35.338Z,13.88
2023-02-08T05:05:03.100Z,13.35
2023-02-08T05:07:31.295Z,15.07
2023-02-08T05:09:58.919Z,13.75
2023-02-08T05:12:26.701Z,11.50
2023-02-08T05:14:54.484Z,13.93
2023-02-08T05:17:22.244Z,11.35
2023-02-08T05:19:50.353Z,11.55
2023-02-08T05:22:18.051Z,14.55
2023-02-08T05:24:45.783Z,11.95
2023-02-08T05:27:13.526Z,14.77
2023-02-08T05:29:41.318Z,12.05
2023-02-08T05:32:09.012Z,11.70
2023-02-08T05:34:38.505Z,13.40
2023-02-08T05:37:06.324Z,13.95
2023-02-08T05:39:34.111Z,12.30
2023-02-08T05:42:01.957Z,11.63
2023-02-08T05:44:29.764Z,13.32
2023-02-08T05:46:57.532Z,14.52
2023-02-08T05:49:25.465Z,13.25
2023-02-08T05:51:53.179Z,10.50
2023-02-08T05:54:20.927Z,12.25
2023-02-08T05:56:48.830Z,13.65
2023-02-08T05:59:16.774Z,14.68
2023-02-08T06:01:44.471Z,14.10
2023-02-08T06:04:12.261Z,11.88
2023-02-08T06:06:40.168Z,14.75
2023-02-08T06:09:08.091Z,13.90
2023-02-08T06:11:37.289Z,10.88
2023-02-08T06:14:05.050Z,12.27
2023-02-08T06:16:32.992Z,12.93
2023-02-08T06:19:00.694Z,12.57
2023-02-08T06:21:29.359Z,13.62
2023-02-08T06:23:57.040Z,16.98
2023-02-08T06:26:24.879Z,10.50
2023-02-08T06:28:52.525Z,10.05
2023-02-08T06:31:20.277Z,14.05
2023-02-08T06:33:48.041Z,12.13
2023-02-08T06:36:16.116Z,13.07
2023-02-08T06:38:44.315Z,11.15
2023-02-08T06:41:12.043Z,16.90
2023-02-08T06:43:40.177Z,13.77
2023-02-08T06:46:09.717Z,11.80
2023-02-08T06:48:37.809Z,10.43
2023-02-08T06:51:05.647Z,11.40
2023-02-08T06:53:33.524Z,14.48
2023-02-08T06:56:01.238Z,11.63
2023-02-08T06:58:28.886Z,12.93
2023-02-08T07:00:56.644Z,13.75
2023-02-08T07:03:24.314Z,11.40
2023-02-08T07:06:04.135Z,15.90
2023-02-08T07:08:34.527Z,13.18
2023-02-08T07:11:07.661Z,12.10
2023-02-08T07:13:35.437Z,9.98
2023-02-08T07:16:03.868Z,13.13
2023-02-08T07:18:31.721Z,15.73
2023-02-08T07:20:59.470Z,11.15
2023-02-08T07:23:27.192Z,11.77
2023-02-08T07:26:06.352Z,11.00
2023-02-08T07:28:34.284Z,16.17
2023-02-08T07:31:07.270Z,11.68
2023-02-08T07:33:35.243Z,13.82
2023-02-08T07:36:04.383Z,12.48
2023-02-08T07:38:34.780Z,12.40
2023-02-08T07:41:10.486Z,10.95
2023-02-08T07:43:39.406Z,13.88
2023-02-08T07:46:12.587Z,13.40
2023-02-08T07:48:40.647Z,9.63
2023-02-08T07:51:09.746Z,11.48
2023-02-08T07:53:37.990Z,11.57
2023-02-08T07:56:05.963Z,10.52
2023-02-08T07:58:33.622Z,11.43
2023-02-08T08:01:09.449Z,13.60
2023-02-08T08:03:43.715Z,14.98
2023-02-08T08:06:11.485Z,13.40
2023-02-08T08:08:39.142Z,14.02
2023-02-08T08:11:07.307Z,17.50
2023-02-08T08:13:35.019Z,13.32
2023-02-08T08:16:02.999Z,11.68
2023-02-08T08:18:30.983Z,14.70
2023-02-08T08:20:58.763Z,13.48
2023-02-08T08:23:26.532Z,15.80
2023-02-08T08:25:54.326Z,12.95
2023-02-08T08:28:22.119Z,14.40
2023-02-08T08:30:50.043Z,13.25
2023-02-08T08:33:17.831Z,11.82
2023-02-08T08:35:48.244Z,12.85
2023-02-08T08:38:16.058Z,13.40
2023-02-08T08:40:43.873Z,9.43
2023-02-08T08:43:11.672Z,13.10
2023-02-08T08:45:39.380Z,11.12
2023-02-08T08:48:07.440Z,10.55
2023-02-08T08:50:35.201Z,16.60
2023-02-08T08:53:02.874Z,14.07
2023-02-08T08:55:30.617Z,12.50
2023-02-08T08:57:58.435Z,13.00
2023-02-08T09:00:26.191Z,11.48
2023-02-08T09:02:54.307Z,11.98
2023-02-08T09:05:22.076Z,13.18
2023-02-08T09:07:49.846Z,12.23
2023-02-08T09:10:17.572Z,14.07
2023-02-08T09:12:45.355Z,10.75
2023-02-08T09:15:12.993Z,12.68
2023-02-08T09:17:40.708Z,14.63
2023-02-08T09:20:08.805Z,10.85
2023-02-08T09:22:36.499Z,14.10
2023-02-08T09:25:04.492Z,10.45
2023-02-08T09:27:32.239Z,10.57
2023-02-08T09:30:00.172Z,13.82
2023-02-08T09:32:27.922Z,12.05
2023-02-08T09:34:55.814Z,12.48
2023-02-08T09:37:23.682Z,14.13
2023-02-08T09:39:51.600Z,13.25
2023-02-08T09:43:18.110Z,12.15
2023-02-08T09:46:00.144Z,10.93
2023-02-08T09:48:40.058Z,11.75
2023-02-08T09:51:42.952Z,12.18
2023-02-08T09:54:22.124Z,14.55
2023-02-08T09:56:51.323Z,13.13
2023-02-08T09:59:30.117Z,13.25
2023-02-08T10:02:03.832Z,14.07
2023-02-08T10:04:38.807Z,14.32
2023-02-08T10:07:06.547Z,14.02
2023-02-08T10:09:34.821Z,10.95
2023-02-08T10:12:32.072Z,13.85
2023-02-08T10:15:24.235Z,10.50
2023-02-08T10:17:52.073Z,13.52
2023-02-08T10:20:29.667Z,12.80
2023-02-08T10:23:41.347Z,13.57
2023-02-08T10:26:15.063Z,13.93
2023-02-08T10:29:13.515Z,13.93
2023-02-08T10:32:05.905Z,15.57
2023-02-08T10:34:39.360Z,12.52
2023-02-08T10:37:36.041Z,12.95
2023-02-08T10:40:31.916Z,12.68
2023-02-08T10:43:04.736Z,11.75
2023-02-08T10:46:03.810Z,12.57
2023-02-08T10:49:12.444Z,11.80
2023-02-08T10:51:40.281Z,14.63
2023-02-08T10:54:11.825Z,12.48
2023-02-08T10:56:48.793Z,13.02
2023-02-08T10:59:24.452Z,15.90
2023-02-08T11:01:54.164Z,18.33
2023-02-08T11:04:21.964Z,12.75
2023-02-08T11:06:51.508Z,14.50
2023-02-08T11:09:22.110Z,11.32
2023-02-08T11:11:53.584Z,11.60
2023-02-08T11:14:35.105Z,12.85
2023-02-08T11:17:23.341Z,14.85
2023-02-08T11:19:52.167Z,14.95
2023-02-08T11:22:23.092Z,16.50
2023-02-08T11:25:03.467Z,13.88
2023-02-08T11:27:33.329Z,16.77
2023-02-08T11:30:19.529Z,15.95
2023-02-08T11:32:50.689Z,16.50
2023-02-08T11:35:25.578Z,14.68
2023-02-08T11:37:59.490Z,13.68
2023-02-08T11:40:35.508Z,15.77
2023-02-08T11:43:05.041Z,13.95
2023-02-08T11:45:36.859Z,15.43
2023-02-08T11:48:06.414Z,13.43
2023-02-08T11:50:37.954Z,13.20
2023-02-08T11:53:08.917Z,12.75
2023-02-08T11:55:37.194Z,15.07
2023-02-08T11:58:19.134Z,17.12
2023-02-08T12:01:07.202Z,12.27
2023-02-08T12:03:41.150Z,16.23
2023-02-08T12:06:17.765Z,13.82
2023-02-08T12:09:08.855Z,16.90
2023-02-08T12:11:43.978Z,11.02
2023-02-08T12:14:30.282Z,15.38
2023-02-08T12:17:17.260Z,13.40
2023-02-08T12:20:05.667Z,12.82
2023-02-08T12:22:33.943Z,9.75
2023-02-08T12:25:23.567Z,14.20
2023-02-08T12:28:06.806Z,13.23
2023-02-08T12:30:53.658Z,13.15
2023-02-08T12:33:46.583Z,14.48
2023-02-08T12:36:31.433Z,12.00
2023-02-08T12:39:33.681Z,11.20
2023-02-08T12:42:27.398Z,14.93
2023-02-08T12:45:17.490Z,13.90
2023-02-08T12:48:04.594Z,11.70
2023-02-08T12:50:45.997Z,10.55
2023-02-08T12:53:32.956Z,11.20
2023-02-08T12:56:12.752Z,11.93
2023-02-08T12:58:51.668Z,16.83
2023-02-08T13:01:38.296Z,13.40
2023-02-08T13:04:10.681Z,12.77
2023-02-08T13:06:50.991Z,13.68
2023-02-08T13:09:35.711Z,12.77
2023-02-08T13:12:15.294Z,13.55
2023-02-08T13:14:52.882Z,13.77
2023-02-08T13:17:25.742Z,12.37
2023-02-08T13:20:04.545Z,11.68
2023-02-08T13:22:38.367Z,11.48
2023-02-08T13:25:16.113Z,12.77
2023-02-08T13:27:43.986Z,13.07
2023-02-08T13:30:20.629Z,11.77
2023-02-08T13:32:51.829Z,10.82
2023-02-08T13:35:28.790Z,11.98
2023-02-08T13:38:34.271Z,12.23
2023-02-08T13:41:19.920Z,12.57
2023-02-08T13:44:24.703Z,10.75
2023-02-08T13:46:53.581Z,11.20
2023-02-08T13:50:10.932Z,9.75
2023-02-08T13:52:48.172Z,9.93
2023-02-08T13:55:34.599Z,13.27
2023-02-08T13:58:06.446Z,10.57
2023-02-08T14:00:38.076Z,11.85
2023-02-08T14:03:08.697Z,10.25
2023-02-08T14:05:45.685Z,9.23
2023-02-08T14:08:25.105Z,12.35
2023-02-08T14:11:15.671Z,10.52
2023-02-08T14:13:56.386Z,9.55
2023-02-08T14:16:32.110Z,11.77
2023-02-08T14:19:03.145Z,10.95
2023-02-08T14:21:44.501Z,11.93
2023-02-08T14:24:25.451Z,10.27
2023-02-08T14:27:09.458Z,10.07
2023-02-08T14:29:38.450Z,11.52
2023-02-08T14:32:06.353Z,9.77
2023-02-08T14:34:40.078Z,10.52
2023-02-08T14:37:07.909Z,8.73
2023-02-08T14:39:38.310Z,9.50
2023-02-08T14:42:09.800Z,12.52
2023-02-08T14:44:40.291Z,11.93
2023-02-08T14:47:26.086Z,10.93
2023-02-08T14:50:06.206Z,10.45
2023-02-08T14:52:35.690Z,8.68
2023-02-08T14:55:17.688Z,11.70
2023-02-08T14:57:45.865Z,10.52
2023-02-08T15:00:35.861Z,11.63
2023-02-08T15:03:06.513Z,10.88
2023-02-08T15:05:47.573Z,10.35
2023-02-08T15:08:22.237Z,10.38
2023-02-08T15:10:50.283Z,9.98
2023-02-08T15:13:25.973Z,9.73
2023-02-08T15:15:56.965Z,11.27
2023-02-08T15:18:29.047Z,11.43
2023-02-08T15:21:08.083Z,14.77
2023-02-08T15:23:35.801Z,14.05
2023-02-08T15:26:06.816Z,14.32
2023-02-08T15:28:37.802Z,12.55
2023-02-08T15:31:07.563Z,15.40
2023-02-08T15:33:35.903Z,15.57
2023-02-08T15:36:29.007Z,13.52
2023-02-08T15:39:00.231Z,16.05
2023-02-08T15:41:30.931Z,14.27
2023-02-08T15:44:08.205Z,15.77
2023-02-08T15:46:36.814Z,15.45
2023-02-08T15:49:04.869Z,20.37
2023-02-08T15:51:33.663Z,12.27
2023-02-08T15:54:01.503Z,13.20
2023-02-08T15:56:42.241Z,16.40
2023-02-08T15:59:22.351Z,12.73
2023-02-08T16:01:51.169Z,14.38
2023-02-08T16:04:19.522Z,14.93
2023-02-08T16:06:54.428Z,16.90
2023-02-08T16:09:26.543Z,13.65
2023-02-08T16:11:57.636Z,14.85
2023-02-08T16:14:29.311Z,14.98
2023-02-08T16:16:59.319Z,18.27
2023-02-08T16:19:32.916Z,16.65
2023-02-08T16:22:22.371Z,15.52
2023-02-08T16:24:51.959Z,17.90
2023-02-08T16:27:31.477Z,15.13
2023-02-08T16:30:00.356Z,15.77
2023-02-08T16:32:27.936Z,14.75
2023-02-08T16:34:55.700Z,15.93
2023-02-08T16:37:36.302Z,16.98
2023-02-08T16:40:06.165Z,17.15
2023-02-08T16:42:40.939Z,15.75
2023-02-08T16:45:13.734Z,15.50
2023-02-08T16:48:10.017Z,17.65
2023-02-08T16:50:45.598Z,19.48
2023-02-08T16:53:13.873Z,17.10
2023-02-08T16:55:41.596Z,16.40
2023-02-08T16:58:15.993Z,15.70
2023-02-08T17:00:44.048Z,16.52
2023-02-08T17:03:11.963Z,20.27
2023-02-08T17:05:41.087Z,16.20
2023-02-08T17:08:14.150Z,16.73
2023-02-08T17:10:42.265Z,18.50
2023-02-08T17:13:20.279Z,13.93
2023-02-08T17:15:51.577Z,16.48
2023-02-08T17:18:19.558Z,15.70
2023-02-08T17:20:47.815Z,16.62
2023-02-08T17:23:16.900Z,17.50
2023-02-08T17:25:45.538Z,13.90
2023-02-08T17:28:19.407Z,16.02
2023-02-08T17:30:49.034Z,15.43
2023-02-08T17:33:20.580Z,14.43
2023-02-08T17:35:50.928Z,18.17
2023-02-08T17:38:20.589Z,23.38
2023-02-08T17:40:48.681Z,20.70
2023-02-08T17:43:16.590Z,18.23
2023-02-08T17:45:45.385Z,20.05
2023-02-08T17:48:16.905Z,17.60
2023-02-08T17:50:48.962Z,17.12
2023-02-08T17:53:17.071Z,20.58
2023-02-08T17:55:46.516Z,19.42
2023-02-08T17:58:14.526Z,16.05
2023-02-08T18:00:42.504Z,17.45
2023-02-08T18:03:10.368Z,21.10
2023-02-08T18:05:38.616Z,18.02
2023-02-08T18:08:06.648Z,19.98
2023-02-08T18:10:34.376Z,16.75
2023-02-08T18:13:02.176Z,21.55
2023-02-08T18:15:30.081Z,17.92
2023-02-08T18:17:57.744Z,16.48
2023-02-08T18:20:25.504Z,14.95
2023-02-08T18:22:53.373Z,16.50
2023-02-08T18:25:21.729Z,20.88
2023-02-08T18:27:49.820Z,16.65
2023-02-08T18:30:17.614Z,17.75
2023-02-08T18:32:45.844Z,17.73
2023-02-08T18:35:13.606Z,15.48
2023-02-08T18:37:41.752Z,19.75
2023-02-08T18:40:10.577Z,17.17
2023-02-08T18:42:38.311Z,18.20
2023-02-08T18:45:07.482Z,20.27
2023-02-08T18:47:40.570Z,18.87
2023-02-08T18:50:10.231Z,22.87
2023-02-08T18:52:37.958Z,19.83
2023-02-08T18:55:05.998Z,20.67
2023-02-08T18:57:33.721Z,18.62
2023-02-08T19:00:01.520Z,16.40
2023-02-08T19:02:29.280Z,17.02
2023-02-08T19:04:57.244Z,16.25
2023-02-08T19:07:25.020Z,18.60
2023-02-08T19:09:52.905Z,14.75
2023-02-08T19:12:22.178Z,16.23
2023-02-08T19:14:51.895Z,17.05
2023-02-08T19:17:20.620Z,19.83
2023-02-08T19:19:48.512Z,15.48
2023-02-08T19:22:16.301Z,14.43
2023-02-08T19:24:44.176Z,21.25
2023-02-08T19:27:12.008Z,14.70
2023-02-08T19:29:39.862Z,16.70
2023-02-08T19:32:09.216Z,19.15
2023-02-08T19:34:36.960Z,14.87
2023-02-08T19:37:04.797Z,17.23
2023-02-08T19:39:32.799Z,14.93
2023-02-08T19:42:00.629Z,19.05
2023-02-08T19:44:30.606Z,20.25
2023-02-08T19:46:59.036Z,19.25
2023-02-08T19:49:28.532Z,15.25
2023-02-08T19:51:56.871Z,20.90
2023-02-08T19:54:24.958Z,17.48
2023-02-08T19:56:55.636Z,15.48
2023-02-08T19:59:29.586Z,20.00
2023-02-08T20:01:57.557Z,16.65
2023-02-08T20:04:26.091Z,18.25
2023-02-08T20:06:54.809Z,18.67
2023-02-08T20:09:23.080Z,17.50
2023-02-08T20:11:57.871Z,15.32
2023-02-08T20:14:27.278Z,19.40
2023-02-08T20:16:55.107Z,17.00
2023-02-08T20:19:22.936Z,15.15
2023-02-08T20:21:50.914Z,17.20
2023-02-08T20:24:20.821Z,18.42
2023-02-08T20:26:50.433Z,19.02
2023-02-08T20:29:18.994Z,20.67
2023-02-08T20:31:49.607Z,21.15
2023-02-08T20:34:19.789Z,17.73
2023-02-08T20:37:05.874Z,17.90
2023-02-08T20:39:35.603Z,16.85
2023-02-08T20:42:04.258Z,19.50
2023-02-08T20:44:32.859Z,18.15
2023-02-08T20:47:01.074Z,18.23
2023-02-08T20:49:29.100Z,19.40
2023-02-08T20:51:57.143Z,16.85
2023-02-08T20:54:25.609Z,21.60
2023-02-08T20:56:54.372Z,21.37
2023-02-08T20:59:22.497Z,16.30
2023-02-08T21:01:50.809Z,20.52
2023-02-08T21:04:20.914Z,24.15
2023-02-08T21:06:48.760Z,21.73
2023-02-08T21:09:19.038Z,17.40
2023-02-08T21:11:48.348Z,20.67
2023-02-08T21:14:19.948Z,23.58
2023-02-08T21:16:49.693Z,19.65
2023-02-08T21:19:18.361Z,17.98
2023-02-08T21:21:46.530Z,22.52
2023-02-08T21:24:14.264Z,17.87
2023-02-08T21:26:42.115Z,18.98
2023-02-08T21:29:09.952Z,21.60
2023-02-08T21:31:38.105Z,19.62
2023-02-08T21:34:07.306Z,19.60
2023-02-08T21:36:35.881Z,21.85
2023-02-08T21:39:04.510Z,22.60
2023-02-08T21:41:34.980Z,23.48
2023-02-08T21:44:05.116Z,18.80
2023-02-08T21:46:33.687Z,20.17
2023-02-08T21:49:20.582Z,17.37
2023-02-08T21:52:07.096Z,22.83
2023-02-08T21:54:42.697Z,19.73
2023-02-08T21:57:15.577Z,22.08
2023-02-08T21:59:44.347Z,17.80
2023-02-08T22:02:22.941Z,19.37
2023-02-08T22:04:50.858Z,23.50
2023-02-08T22:07:18.950Z,18.10
2023-02-08T22:09:46.680Z,20.23
2023-02-08T22:12:17.339Z,23.40
2023-02-08T22:14:45.279Z,23.35
2023-02-08T22:17:13.309Z,26.60
2023-02-08T22:19:42.478Z,35.10
2023-02-08T22:22:11.491Z,26.60
2023-02-08T22:24:39.578Z,26.87
2023-02-08T22:27:07.353Z,27.92
2023-02-08T22:29:35.153Z,28.23
2023-02-08T22:32:03.151Z,26.70
2023-02-08T22:34:30.942Z,23.67
2023-02-08T22:36:58.994Z,20.58
2023-02-08T22:39:26.954Z,22.70
2023-02-08T22:41:54.837Z,21.48
2023-02-08T22:44:22.558Z,27.25
2023-02-08T22:46:50.466Z,22.67
2023-02-08T22:49:18.120Z,18.65
2023-02-08T22:51:45.999Z,19.05
2023-02-08T22:54:13.753Z,23.17
2023-02-08T22:56:41.415Z,22.37
2023-02-08T22:59:09.236Z,22.40
2023-02-08T23:01:37.917Z,22.13
2023-02-08T23:04:06.162Z,21.62
2023-02-08T23:06:34.212Z,19.15
2023-02-08T23:09:02.322Z,26.25
2023-02-08T23:11:30.210Z,24.00
2023-02-08T23:13:58.072Z,18.80
2023-02-08T23:16:25.833Z,19.67
2023-02-08T23:18:53.658Z,22.25
2023-02-08T23:21:22.559Z,23.15
2023-02-08T23:23:50.641Z,26.52
2023-02-08T23:26:21.345Z,23.23
2023-02-08T23:28:51.930Z,26.90
2023-02-08T23:31:21.605Z,23.38
2023-02-08T23:33:49.884Z,23.48
2023-02-08T23:36:22.218Z,22.15
2023-02-08T23:38:51.452Z,20.73
2023-02-08T23:41:21.580Z,24.15
2023-02-08T23:43:51.737Z,23.25
2023-02-08T23:46:22.238Z,19.77
2023-02-08T23:48:50.765Z,19.65
2023-02-08T23:51:20.446Z,20.77
2023-02-08T23:53:49.179Z,20.45
2023-02-08T23:56:18.685Z,20.00
2023-02-08T23:58:48.654Z,17.98
